createdAt,value
2023-04-18T00:00:38.256Z,6.90
2023-04-18T00:03:10.952Z,7.20
2023-04-18T00:05:46.884Z,6.15
2023-04-18T00:08:17.080Z,5.90
2023-04-18T00:10:44.023Z,7.45
2023-04-18T00:13:18.505Z,6.45
2023-04-18T00:15:52.231Z,6.65
2023-04-18T00:18:19.197Z,6.50
2023-04-18T00:20:49.970Z,5.90
2023-04-18T00:23:19.586Z,5.43
2023-04-18T00:25:46.470Z,5.55
2023-04-18T00:28:16.344Z,6.50
2023-04-18T00:30:49.145Z,5.70
2023-04-18T00:33:19.044Z,6.65
2023-04-18T00:35:53.910Z,6.88
2023-04-18T00:38:29.785Z,7.35
2023-04-18T00:41:04.909Z,6.53
2023-04-18T00:43:37.953Z,5.95
2023-04-18T00:46:07.903Z,6.65
2023-04-18T00:48:49.291Z,6.07
2023-04-18T00:51:18.911Z,6.28
2023-04-18T00:53:48.933Z,5.95
2023-04-18T00:56:18.281Z,6.55
2023-04-18T00:58:45.321Z,6.15
2023-04-18T01:01:17.444Z,7.10
2023-04-18T01:03:44.846Z,6.10
2023-04-18T01:06:26.854Z,5.88
2023-04-18T01:08:56.616Z,5.45
2023-04-18T01:11:23.713Z,5.82
2023-04-18T01:14:18.768Z,7.88
2023-04-18T01:16:47.355Z,7.00
2023-04-18T01:19:18.286Z,7.45
2023-04-18T01:21:54.718Z,6.03
2023-04-18T01:24:31.692Z,7.10
2023-04-18T01:27:01.491Z,5.85
2023-04-18T01:29:40.277Z,6.13
2023-04-18T01:32:07.429Z,5.95
2023-04-18T01:34:40.570Z,6.90
2023-04-18T01:37:12.092Z,6.38
2023-04-18T01:39:42.346Z,5.70
2023-04-18T01:42:14.736Z,6.55
2023-04-18T01:44:46.731Z,6.10
2023-04-18T01:47:15.813Z,5.70
2023-04-18T01:49:52.556Z,6.00
2023-04-18T01:52:22.228Z,5.95
2023-04-18T01:54:51.515Z,5.63
2023-04-18T01:57:20.676Z,5.60
2023-04-18T01:59:47.616Z,6.10
2023-04-18T02:02:14.789Z,5.53
2023-04-18T02:04:44.785Z,6.32
2023-04-18T02:07:13.828Z,6.47
2023-04-18T02:09:46.662Z,6.05
2023-04-18T02:12:17.600Z,6.38
2023-04-18T02:14:50.895Z,5.55
2023-04-18T02:17:17.891Z,6.55
2023-04-18T02:19:44.888Z,6.78
2023-04-18T02:22:11.833Z,6.68
2023-04-18T02:24:41.133Z,5.57
2023-04-18T02:27:14.632Z,7.13
2023-04-18T02:29:44.337Z,6.65
2023-04-18T02:32:11.272Z,5.97
2023-04-18T02:34:41.253Z,6.63
2023-04-18T02:37:08.196Z,6.32
2023-04-18T02:39:35.198Z,6.35
2023-04-18T02:42:02.147Z,5.53
2023-04-18T02:44:29.193Z,6.50
2023-04-18T02:46:56.078Z,6.47
2023-04-18T02:49:52.422Z,6.30
2023-04-18T02:52:24.538Z,6.40
2023-04-18T02:55:02.744Z,6.35
2023-04-18T02:57:34.148Z,5.88
2023-04-18T03:00:04.363Z,6.35
2023-04-18T03:02:34.151Z,6.03
2023-04-18T03:05:01.238Z,6.25
2023-04-18T03:07:28.332Z,6.05
2023-04-18T03:09:55.325Z,6.25
2023-04-18T03:12:22.433Z,6.32
2023-04-18T03:14:51.635Z,6.00
2023-04-18T03:17:21.501Z,6.28
2023-04-18T03:19:48.797Z,6.43
2023-04-18T03:22:21.487Z,5.50
2023-04-18T03:24:51.476Z,6.60
2023-04-18T03:27:21.213Z,6.75
2023-04-18T03:29:50.784Z,6.85
2023-04-18T03:32:18.653Z,6.05
2023-04-18T03:34:49.051Z,6.65
2023-04-18T03:37:19.060Z,6.03
2023-04-18T03:39:46.101Z,5.68
2023-04-18T03:42:12.973Z,6.00
2023-04-18T03:44:43.506Z,6.13
2023-04-18T03:47:17.042Z,5.82
2023-04-18T03:49:44.007Z,6.63
2023-04-18T03:52:11.042Z,5.85
2023-04-18T03:54:40.716Z,6.32
2023-04-18T03:57:09.904Z,6.10
2023-04-18T03:59:37.044Z,5.63
2023-04-18T04:02:04.241Z,6.90
2023-04-18T04:04:31.331Z,6.20
2023-04-18T04:07:03.381Z,6.80
2023-04-18T04:09:30.725Z,7.03
2023-04-18T04:12:10.263Z,5.70
2023-04-18T04:14:42.998Z,6.38
2023-04-18T04:17:10.040Z,5.97
2023-04-18T04:19:45.093Z,6.57
2023-04-18T04:22:12.050Z,5.97
2023-04-18T04:24:43.735Z,6.32
2023-04-18T04:27:13.800Z,6.03
2023-04-18T04:29:50.729Z,7.03
2023-04-18T04:32:32.246Z,6.32
2023-04-18T04:35:00.192Z,6.70
2023-04-18T04:37:30.154Z,5.82
2023-04-18T04:39:58.325Z,6.20
2023-04-18T04:42:33.006Z,7.00
2023-04-18T04:45:02.893Z,7.57
2023-04-18T04:47:58.134Z,7.13
2023-04-18T04:50:51.346Z,6.00
2023-04-18T04:53:27.091Z,6.93
2023-04-18T04:56:08.023Z,6.45
2023-04-18T04:59:05.198Z,5.90
2023-04-18T05:01:37.957Z,6.72
2023-04-18T05:04:12.824Z,6.35
2023-04-18T05:06:50.024Z,6.28
2023-04-18T05:09:25.623Z,6.05
2023-04-18T05:11:56.414Z,6.35
2023-04-18T05:14:34.051Z,6.55
2023-04-18T05:17:04.321Z,6.68
2023-04-18T05:19:38.452Z,6.55
2023-04-18T05:22:11.052Z,7.00
2023-04-18T05:24:43.134Z,7.45
2023-04-18T05:27:20.384Z,6.20
2023-04-18T05:29:51.732Z,6.32
2023-04-18T05:32:31.227Z,5.85
2023-04-18T05:35:10.862Z,6.63
2023-04-18T05:37:48.069Z,6.72
2023-04-18T05:40:29.377Z,6.68
2023-04-18T05:42:56.386Z,7.72
2023-04-18T05:45:29.119Z,8.55
2023-04-18T05:48:09.645Z,6.90
2023-04-18T05:50:39.843Z,6.97
2023-04-18T05:53:11.806Z,6.88
2023-04-18T05:55:48.021Z,6.05
2023-04-18T05:58:25.063Z,7.00
2023-04-18T06:01:16.981Z,7.63
2023-04-18T06:03:46.545Z,7.88
2023-04-18T06:06:22.715Z,8.00
2023-04-18T06:08:57.745Z,7.72
2023-04-18T06:11:29.417Z,7.38
2023-04-18T06:13:56.442Z,6.13
2023-04-18T06:16:28.907Z,7.32
2023-04-18T06:19:01.380Z,8.00
2023-04-18T06:24:35.064Z,7.03
2023-04-18T06:27:05.807Z,7.33
2023-04-18T06:29:38.080Z,8.27
2023-04-18T06:32:06.301Z,12.73
2023-04-18T06:34:39.388Z,10.60
2023-04-18T06:37:13.881Z,9.87
2023-04-18T06:39:43.454Z,9.50
2023-04-18T06:42:10.629Z,8.30
2023-04-18T06:44:40.260Z,8.23
2023-04-18T06:47:07.286Z,8.77
2023-04-18T06:49:35.507Z,8.43
2023-04-18T06:52:07.524Z,10.57
2023-04-18T06:54:35.774Z,10.07
2023-04-18T06:57:09.342Z,8.77
2023-04-18T06:59:38.749Z,8.87
2023-04-18T07:02:10.497Z,11.00
2023-04-18T07:04:40.382Z,9.70
2023-04-18T07:07:07.396Z,9.77
2023-04-18T07:09:34.319Z,9.60
2023-04-18T07:12:03.119Z,9.60
2023-04-18T07:14:31.675Z,10.00
2023-04-18T07:17:04.807Z,9.57
2023-04-18T07:19:31.878Z,9.37
2023-04-18T07:22:01.390Z,9.20
2023-04-18T07:24:29.822Z,8.50
2023-04-18T07:27:11.969Z,8.87
2023-04-18T07:29:41.831Z,7.60
2023-04-18T07:32:14.771Z,7.70
2023-04-18T07:34:41.818Z,6.10
2023-04-18T07:37:16.752Z,7.00
2023-04-18T07:39:46.671Z,6.70
2023-04-18T07:42:13.659Z,7.43
2023-04-18T07:44:40.550Z,7.70
2023-04-18T07:47:11.552Z,6.80
2023-04-18T07:49:38.894Z,6.60
2023-04-18T07:52:05.995Z,6.40
2023-04-18T07:54:33.059Z,5.87
2023-04-18T07:57:01.019Z,7.20
2023-04-18T07:59:32.367Z,7.00
2023-04-18T08:02:02.323Z,6.10
2023-04-18T08:04:30.618Z,6.30
2023-04-18T08:07:02.673Z,7.40
2023-04-18T08:09:32.755Z,6.50
2023-04-18T08:12:06.919Z,6.47
2023-04-18T08:14:33.917Z,5.80
2023-04-18T08:17:12.984Z,6.00
2023-04-18T08:20:00.892Z,7.90
2023-04-18T08:23:06.041Z,34.43
2023-04-18T08:25:38.656Z,18.27
2023-04-18T08:28:20.246Z,28.57
2023-04-18T08:31:05.825Z,18.57
2023-04-18T08:33:37.938Z,23.03
2023-04-18T08:36:05.183Z,10.40
2023-04-18T08:38:36.088Z,9.13
2023-04-18T08:41:12.920Z,7.23
2023-04-18T08:43:55.167Z,12.10
2023-04-18T08:46:53.189Z,7.60
2023-04-18T08:49:22.853Z,6.90
2023-04-18T08:51:55.389Z,6.87
2023-04-18T08:54:22.664Z,6.80
2023-04-18T08:57:14.989Z,7.27
2023-04-18T08:59:47.111Z,8.03
2023-04-18T09:02:23.656Z,6.90
2023-04-18T09:04:53.214Z,6.77
2023-04-18T09:07:30.283Z,6.80
2023-04-18T09:09:57.989Z,6.97
2023-04-18T09:12:29.521Z,5.93
2023-04-18T09:15:09.549Z,6.53
2023-04-18T09:17:38.580Z,6.40
2023-04-18T09:20:10.647Z,8.17
2023-04-18T09:22:51.948Z,9.20
2023-04-18T09:25:36.138Z,8.60
2023-04-18T09:28:04.905Z,5.73
2023-04-18T09:30:40.117Z,5.97
2023-04-18T09:33:10.193Z,7.50
2023-04-18T09:35:38.249Z,6.57
2023-04-18T09:38:08.456Z,5.90
2023-04-18T09:40:40.008Z,5.70
2023-04-18T09:43:19.604Z,7.43
2023-04-18T09:45:50.883Z,6.80
2023-04-18T09:48:18.151Z,6.33
2023-04-18T09:50:50.798Z,7.40
2023-04-18T09:53:20.997Z,6.57
2023-04-18T09:55:57.711Z,6.40
2023-04-18T09:58:32.257Z,6.23
2023-04-18T10:00:59.444Z,6.40
2023-04-18T10:03:35.053Z,6.87
2023-04-18T10:06:02.407Z,7.93
2023-04-18T10:08:32.525Z,7.07
2023-04-18T10:10:59.585Z,6.90
2023-04-18T10:13:28.830Z,6.57
2023-04-18T10:15:56.624Z,6.03
2023-04-18T10:18:24.738Z,5.87
2023-04-18T10:21:02.354Z,5.83
2023-04-18T10:23:32.530Z,5.70
2023-04-18T10:25:59.928Z,6.80
2023-04-18T10:28:27.813Z,6.70
2023-04-18T10:31:02.939Z,9.13
2023-04-18T10:33:42.567Z,6.23
2023-04-18T10:36:17.230Z,6.40
2023-04-18T10:39:19.499Z,6.70
2023-04-18T10:41:51.198Z,5.80
2023-04-18T10:44:23.560Z,6.57
2023-04-18T10:46:51.259Z,5.60
2023-04-18T10:49:32.113Z,6.70
2023-04-18T10:52:05.454Z,5.87
2023-04-18T10:54:48.678Z,6.13
2023-04-18T10:57:18.241Z,5.27
2023-04-18T10:59:49.252Z,5.00
2023-04-18T11:02:30.393Z,5.60
2023-04-18T11:04:59.440Z,5.30
2023-04-18T11:07:36.316Z,5.27
2023-04-18T11:10:06.501Z,6.00
2023-04-18T11:12:36.471Z,5.30
2023-04-18T11:15:15.279Z,4.60
2023-04-18T11:17:42.427Z,5.77
2023-04-18T11:20:12.968Z,5.20
2023-04-18T11:22:54.108Z,6.00
2023-04-18T11:25:26.185Z,6.00
2023-04-18T11:27:53.311Z,6.10
2023-04-18T11:30:20.688Z,8.33
2023-04-18T11:32:49.936Z,6.00
2023-04-18T11:35:19.185Z,5.23
2023-04-18T11:37:46.215Z,5.43
2023-04-18T11:40:14.545Z,4.40
2023-04-18T11:42:42.055Z,5.20
2023-04-18T11:45:13.801Z,5.13
2023-04-18T11:47:42.833Z,5.07
2023-04-18T11:50:12.668Z,4.47
2023-04-18T11:52:45.514Z,5.80
2023-04-18T11:55:24.879Z,5.43
2023-04-18T11:58:00.712Z,5.30
2023-04-18T12:00:37.249Z,5.60
2023-04-18T12:03:15.846Z,5.60
2023-04-18T12:05:43.286Z,4.87
2023-04-18T12:08:13.664Z,5.27
2023-04-18T12:10:48.417Z,5.40
2023-04-18T12:13:17.132Z,5.40
2023-04-18T12:15:46.880Z,5.73
2023-04-18T12:18:17.761Z,5.57
2023-04-18T12:20:50.604Z,5.67
2023-04-18T12:23:35.694Z,4.73
2023-04-18T12:26:04.638Z,4.93
2023-04-18T12:28:32.622Z,5.53
2023-04-18T12:30:59.794Z,5.60
2023-04-18T12:33:27.063Z,6.10
2023-04-18T12:35:54.326Z,5.40
2023-04-18T12:38:24.913Z,5.90
2023-04-18T12:40:52.151Z,5.30
2023-04-18T12:43:19.885Z,6.50
2023-04-18T12:45:47.512Z,6.60
2023-04-18T12:48:14.822Z,6.57
2023-04-18T12:50:41.872Z,5.83
2023-04-18T12:53:12.805Z,6.30
2023-04-18T12:55:39.954Z,7.70
2023-04-18T12:58:06.866Z,6.73
2023-04-18T13:00:33.955Z,6.70
2023-04-18T13:03:01.244Z,6.80
2023-04-18T13:05:33.114Z,6.27
2023-04-18T13:10:31.117Z,7.20
2023-04-18T13:12:58.021Z,7.60
2023-04-18T13:15:27.536Z,6.40
2023-04-18T13:17:58.715Z,7.90
2023-04-18T13:20:25.752Z,6.67
2023-04-18T13:22:53.785Z,7.07
2023-04-18T13:25:20.751Z,6.80
2023-04-18T13:27:50.273Z,6.40
2023-04-18T13:30:17.273Z,6.73
2023-04-18T13:32:44.352Z,7.90
2023-04-18T13:35:13.870Z,7.47
2023-04-18T13:37:40.945Z,6.97
2023-04-18T13:40:08.478Z,8.07
2023-04-18T13:42:37.120Z,7.70
2023-04-18T13:45:10.227Z,7.27
2023-04-18T13:47:37.838Z,7.10
2023-04-18T13:50:05.702Z,8.60
2023-04-18T13:52:33.090Z,8.07
2023-04-18T13:55:00.909Z,7.83
2023-04-18T13:57:28.575Z,8.83
2023-04-18T13:59:55.706Z,8.03
2023-04-18T14:02:23.296Z,8.60
2023-04-18T14:04:52.216Z,8.03
2023-04-18T14:07:19.290Z,7.53
2023-04-18T14:09:48.319Z,6.90
2023-04-18T14:12:20.883Z,8.40
2023-04-18T14:14:48.222Z,7.50
2023-04-18T14:17:15.322Z,7.20
2023-04-18T14:19:42.300Z,7.97
2023-04-18T14:22:09.427Z,8.10
2023-04-18T14:24:36.595Z,7.73
2023-04-18T14:27:04.028Z,7.63
2023-04-18T14:29:31.166Z,7.30
2023-04-18T14:31:58.155Z,7.43
2023-04-18T14:34:28.329Z,7.53
2023-04-18T14:36:57.072Z,6.80
2023-04-18T14:39:25.957Z,6.97
2023-04-18T14:41:54.886Z,6.77
2023-04-18T14:44:21.917Z,7.67
2023-04-18T14:46:52.037Z,7.40
2023-04-18T14:49:19.083Z,8.97
2023-04-18T14:51:47.234Z,8.20
2023-04-18T14:54:14.228Z,7.47
2023-04-18T14:56:41.147Z,7.70
2023-04-18T14:59:08.142Z,7.27
2023-04-18T15:01:35.154Z,8.57
2023-04-18T15:04:04.358Z,8.50
2023-04-18T15:06:33.002Z,8.37
2023-04-18T15:09:00.000Z,8.03
2023-04-18T15:11:29.906Z,6.20
2023-04-18T15:14:00.276Z,7.00
2023-04-18T15:16:41.309Z,6.43
2023-04-18T15:19:13.573Z,6.87
2023-04-18T15:21:40.450Z,6.93
2023-04-18T15:24:10.741Z,6.73
2023-04-18T15:26:37.825Z,8.53
2023-04-18T15:29:04.711Z,7.07
2023-04-18T15:31:34.111Z,6.30
2023-04-18T15:34:01.135Z,6.53
2023-04-18T15:36:28.837Z,6.50
2023-04-18T15:38:55.919Z,15.60
2023-04-18T15:41:23.388Z,8.57
2023-04-18T15:43:52.238Z,8.40
2023-04-18T15:46:19.261Z,8.70
2023-04-18T15:48:48.946Z,7.17
2023-04-18T15:51:15.854Z,6.07
2023-04-18T15:53:44.256Z,6.60
2023-04-18T15:56:11.253Z,7.00
2023-04-18T15:58:40.863Z,6.33
2023-04-18T16:01:07.848Z,6.10
2023-04-18T16:03:35.080Z,5.67
2023-04-18T16:06:02.286Z,5.93
2023-04-18T16:08:33.454Z,5.47
2023-04-18T16:11:00.564Z,5.20
2023-04-18T16:13:28.575Z,5.67
2023-04-18T16:15:55.788Z,5.17
2023-04-18T16:18:22.834Z,5.17
2023-04-18T16:20:49.861Z,5.03
2023-04-18T16:23:18.081Z,5.37
2023-04-18T16:25:47.288Z,4.67
2023-04-18T16:28:20.325Z,5.03
2023-04-18T16:30:47.564Z,5.17
2023-04-18T16:33:14.804Z,5.53
2023-04-18T16:35:46.051Z,4.97
2023-04-18T16:38:16.171Z,4.70
2023-04-18T16:40:43.064Z,5.53
2023-04-18T16:43:10.112Z,5.13
2023-04-18T16:45:40.008Z,4.87
2023-04-18T16:48:09.373Z,4.77
2023-04-18T16:50:36.427Z,5.00
2023-04-18T16:53:03.524Z,5.20
2023-04-18T16:55:30.573Z,5.60
2023-04-18T16:57:57.562Z,5.10
2023-04-18T17:00:24.517Z,4.73
2023-04-18T17:02:51.592Z,5.93
2023-04-18T17:05:19.789Z,4.80
2023-04-18T17:07:49.728Z,5.40
2023-04-18T17:10:16.855Z,4.23
2023-04-18T17:12:43.750Z,5.77
2023-04-18T17:15:11.207Z,4.97
2023-04-18T17:17:38.242Z,7.30
2023-04-18T17:20:08.327Z,7.77
2023-04-18T17:22:36.442Z,5.03
2023-04-18T17:25:04.012Z,6.13
2023-04-18T17:27:30.970Z,5.67
2023-04-18T17:29:58.014Z,5.40
2023-04-18T17:32:26.204Z,5.40
2023-04-18T17:34:55.968Z,5.27
2023-04-18T17:37:26.049Z,4.90
2023-04-18T17:40:09.170Z,5.40
2023-04-18T17:42:37.000Z,4.70
2023-04-18T17:45:12.039Z,4.90
2023-04-18T17:47:39.730Z,5.77
2023-04-18T17:50:07.393Z,5.27
2023-04-18T17:52:34.466Z,5.30
2023-04-18T17:55:04.345Z,4.90
2023-04-18T17:57:37.824Z,5.20
2023-04-18T18:00:13.582Z,5.10
2023-04-18T18:02:43.778Z,4.73
2023-04-18T18:05:40.584Z,7.53
2023-04-18T18:08:07.834Z,17.90
2023-04-18T18:10:39.442Z,13.70
2023-04-18T18:13:13.716Z,10.23
2023-04-18T18:15:43.211Z,7.00
2023-04-18T18:18:10.377Z,8.20
2023-04-18T18:20:39.042Z,6.40
2023-04-18T18:23:06.857Z,5.57
2023-04-18T18:25:39.588Z,5.10
2023-04-18T18:28:07.432Z,5.63
2023-04-18T18:30:34.497Z,5.90
2023-04-18T18:33:01.789Z,7.60
2023-04-18T18:35:31.471Z,7.17
2023-04-18T18:37:59.742Z,6.10
2023-04-18T18:40:26.882Z,5.53
2023-04-18T18:42:54.893Z,4.73
2023-04-18T18:45:23.767Z,5.30
2023-04-18T18:47:51.255Z,5.40
2023-04-18T18:50:21.383Z,5.03
2023-04-18T18:52:48.509Z,5.03
2023-04-18T18:55:16.448Z,5.00
2023-04-18T18:57:43.425Z,5.07
2023-04-18T19:00:13.660Z,4.87
2023-04-18T19:02:41.017Z,5.10
2023-04-18T19:05:12.783Z,5.57
2023-04-18T19:07:42.793Z,5.87
2023-04-18T19:10:12.934Z,5.23
2023-04-18T19:12:41.905Z,5.27
2023-04-18T19:15:12.536Z,6.07
2023-04-18T19:17:43.875Z,5.37
2023-04-18T19:20:14.040Z,5.83
2023-04-18T19:22:42.991Z,5.20
2023-04-18T19:25:12.804Z,6.90
2023-04-18T19:27:39.834Z,5.87
2023-04-18T19:30:10.887Z,6.23
2023-04-18T19:32:39.199Z,5.70
2023-04-18T19:35:08.716Z,5.70
2023-04-18T19:37:38.720Z,5.73
2023-04-18T19:40:08.722Z,5.70
2023-04-18T19:42:38.225Z,5.77
2023-04-18T19:45:12.132Z,5.67
2023-04-18T19:47:44.374Z,5.50
2023-04-18T19:50:11.813Z,5.50
2023-04-18T19:52:41.888Z,5.00
2023-04-18T19:55:09.431Z,5.60
2023-04-18T19:57:46.139Z,5.70
2023-04-18T20:00:16.732Z,5.97
2023-04-18T20:02:46.708Z,7.23
2023-04-18T20:05:17.411Z,5.63
2023-04-18T20:07:49.587Z,6.13
2023-04-18T20:10:25.694Z,5.83
2023-04-18T20:12:52.772Z,5.50
2023-04-18T20:15:23.150Z,5.90
2023-04-18T20:17:50.262Z,5.97
2023-04-18T20:20:17.385Z,6.30
2023-04-18T20:22:46.438Z,5.90
2023-04-18T20:25:13.333Z,6.10
2023-04-18T20:27:52.553Z,7.40
2023-04-18T20:30:27.061Z,6.43
2023-04-18T20:32:55.157Z,6.60
2023-04-18T20:35:25.166Z,5.77
2023-04-18T20:37:59.531Z,6.60
2023-04-18T20:40:30.061Z,7.07
2023-04-18T20:43:04.583Z,6.20
2023-04-18T20:45:34.762Z,5.97
2023-04-18T20:48:02.137Z,6.33
2023-04-18T20:50:40.418Z,6.10
2023-04-18T20:53:07.368Z,6.90
2023-04-18T20:55:36.769Z,6.50
2023-04-18T20:58:03.743Z,6.90
2023-04-18T21:00:30.819Z,6.83
2023-04-18T21:03:02.216Z,5.23
2023-04-18T21:05:29.392Z,7.07
2023-04-18T21:07:56.572Z,6.57
2023-04-18T21:10:25.722Z,6.47
2023-04-18T21:12:52.758Z,6.60
2023-04-18T21:15:19.906Z,7.90
2023-04-18T21:17:46.874Z,6.83
2023-04-18T21:20:13.853Z,6.93
2023-04-18T21:22:40.850Z,7.27
2023-04-18T21:25:08.272Z,6.63
2023-04-18T21:27:35.549Z,6.47
2023-04-18T21:30:04.684Z,7.27
2023-04-18T21:32:31.973Z,6.13
2023-04-18T21:34:59.408Z,7.27
2023-04-18T21:37:26.528Z,6.43
2023-04-18T21:39:56.676Z,6.67
2023-04-18T21:42:23.643Z,6.77
2023-04-18T21:44:50.872Z,6.93
2023-04-18T21:47:17.816Z,6.10
2023-04-18T21:49:46.426Z,6.30
2023-04-18T21:52:13.504Z,6.63
2023-04-18T21:54:43.543Z,5.80
2023-04-18T21:57:10.667Z,5.33
2023-04-18T21:59:40.172Z,5.90
2023-04-18T22:02:07.281Z,5.70
2023-04-18T22:04:34.642Z,6.80
2023-04-18T22:07:01.752Z,5.57
2023-04-18T22:09:33.997Z,6.70
2023-04-18T22:12:03.738Z,7.97
2023-04-18T22:14:32.255Z,8.43
2023-04-18T22:16:59.813Z,7.07
2023-04-18T22:19:29.637Z,8.17
2023-04-18T22:21:59.676Z,7.80
2023-04-18T22:24:26.881Z,6.33
2023-04-18T22:26:54.056Z,8.27
2023-04-18T22:29:21.062Z,7.33
2023-04-18T22:31:53.200Z,8.00
2023-04-18T22:34:20.251Z,6.17
2023-04-18T22:36:47.239Z,7.30
2023-04-18T22:39:16.002Z,6.30
2023-04-18T22:41:45.235Z,6.00
2023-04-18T22:44:15.516Z,5.90
2023-04-18T22:46:43.054Z,5.53
2023-04-18T22:49:10.159Z,5.77
2023-04-18T22:51:38.368Z,6.83
2023-04-18T22:54:05.698Z,9.47
2023-04-18T22:56:32.727Z,6.63
2023-04-18T22:58:59.701Z,6.50
2023-04-18T23:01:26.840Z,8.07
2023-04-18T23:03:55.186Z,7.10
2023-04-18T23:06:22.368Z,7.80
2023-04-18T23:08:49.760Z,5.60
2023-04-18T23:11:16.963Z,6.30
2023-04-18T23:13:43.973Z,5.93
2023-04-18T23:16:14.046Z,5.97
2023-04-18T23:18:41.231Z,5.13
2023-04-18T23:21:08.151Z,5.00
2023-04-18T23:23:38.082Z,5.10
2023-04-18T23:26:14.780Z,5.60
2023-04-18T23:28:42.468Z,5.93
2023-04-18T23:31:10.020Z,5.83
2023-04-18T23:33:37.135Z,5.97
2023-04-18T23:36:04.214Z,5.10
2023-04-18T23:38:37.307Z,5.03
2023-04-18T23:41:04.325Z,5.73
2023-04-18T23:43:31.413Z,5.30
2023-04-18T23:45:58.397Z,5.03
2023-04-18T23:48:25.602Z,5.63
2023-04-18T23:50:53.341Z,5.10
2023-04-18T23:53:21.351Z,6.77
2023-04-18T23:55:50.884Z,5.20
2023-04-18T23:58:20.155Z,6.00
